Аэропорт: Ивано-Франковск. Ивано-Франковск

ICAO: UKLI

METAR:
Информация по данной станции не доступна
METAR:
2021-04-21 17:04:00
TAF UKLI 211704Z 2118/2203 27005MPS 9999 BKN020 TEMPO 2118/2203 VRB01MPS 2100 -SHRA BR BKN007 BKN012CB